sensor_id;sensor_type;location;lat;lon;timestamp;P1;durP1;ratioP1;P2;durP2;ratioP2
31464;SDS011;18089;47.428;15.006;2023-02-03T00:01:57;8.80;;;8.20;;
31464;SDS011;18089;47.428;15.006;2023-02-03T00:04:29;8.90;;;8.30;;
31464;SDS011;18089;47.428;15.006;2023-02-03T00:07:01;9.00;;;8.30;;
31464;SDS011;18089;47.428;15.006;2023-02-03T00:09:34;9.60;;;8.80;;
31464;SDS011;18089;47.428;15.006;2023-02-03T00:12:07;9.47;;;8.50;;
31464;SDS011;18089;47.428;15.006;2023-02-03T00:14:40;9.43;;;8.63;;
31464;SDS011;18089;47.428;15.006;2023-02-03T00:17:12;10.87;;;9.87;;
31464;SDS011;18089;47.428;15.006;2023-02-03T00:19:44;10.57;;;9.63;;
31464;SDS011;18089;47.428;15.006;2023-02-03T00:22:17;11.30;;;10.10;;
31464;SDS011;18089;47.428;15.006;2023-02-03T00:24:49;9.70;;;8.90;;
31464;SDS011;18089;47.428;15.006;2023-02-03T00:27:22;11.17;;;9.97;;
31464;SDS011;18089;47.428;15.006;2023-02-03T00:29:54;10.43;;;9.53;;
31464;SDS011;18089;47.428;15.006;2023-02-03T00:32:26;10.00;;;9.20;;
31464;SDS011;18089;47.428;15.006;2023-02-03T00:34:58;8.87;;;8.27;;
31464;SDS011;18089;47.428;15.006;2023-02-03T00:37:31;8.10;;;7.60;;
31464;SDS011;18089;47.428;15.006;2023-02-03T00:40:03;8.77;;;8.10;;
31464;SDS011;18089;47.428;15.006;2023-02-03T00:42:37;8.23;;;7.63;;
31464;SDS011;18089;47.428;15.006;2023-02-03T00:45:09;9.03;;;8.43;;
31464;SDS011;18089;47.428;15.006;2023-02-03T00:47:41;9.73;;;8.93;;
31464;SDS011;18089;47.428;15.006;2023-02-03T00:50:13;8.80;;;8.20;;
31464;SDS011;18089;47.428;15.006;2023-02-03T00:52:45;8.53;;;8.03;;
31464;SDS011;18089;47.428;15.006;2023-02-03T00:55:17;8.53;;;8.03;;
31464;SDS011;18089;47.428;15.006;2023-02-03T00:57:51;8.33;;;7.93;;
31464;SDS011;18089;47.428;15.006;2023-02-03T01:00:23;8.30;;;7.80;;
31464;SDS011;18089;47.428;15.006;2023-02-03T01:02:55;9.03;;;8.43;;
31464;SDS011;18089;47.428;15.006;2023-02-03T01:05:27;8.50;;;8.00;;
31464;SDS011;18089;47.428;15.006;2023-02-03T01:07:59;9.03;;;8.40;;
31464;SDS011;18089;47.428;15.006;2023-02-03T01:10:31;8.97;;;8.47;;
31464;SDS011;18089;47.428;15.006;2023-02-03T01:13:04;8.57;;;8.07;;
31464;SDS011;18089;47.428;15.006;2023-02-03T01:15:36;9.80;;;9.00;;
31464;SDS011;18089;47.428;15.006;2023-02-03T01:18:08;8.40;;;7.93;;
31464;SDS011;18089;47.428;15.006;2023-02-03T01:20:40;8.53;;;8.03;;
31464;SDS011;18089;47.428;15.006;2023-02-03T01:23:12;9.77;;;9.00;;
31464;SDS011;18089;47.428;15.006;2023-02-03T01:25:44;10.30;;;9.50;;
31464;SDS011;18089;47.428;15.006;2023-02-03T01:28:18;10.53;;;9.73;;
31464;SDS011;18089;47.428;15.006;2023-02-03T01:30:50;11.00;;;9.90;;
31464;SDS011;18089;47.428;15.006;2023-02-03T01:33:22;11.30;;;10.20;;
31464;SDS011;18089;47.428;15.006;2023-02-03T01:35:54;11.10;;;10.27;;
31464;SDS011;18089;47.428;15.006;2023-02-03T01:38:26;11.13;;;10.13;;
31464;SDS011;18089;47.428;15.006;2023-02-03T01:40:58;12.60;;;11.50;;
31464;SDS011;18089;47.428;15.006;2023-02-03T01:43:32;11.97;;;10.80;;
31464;SDS011;18089;47.428;15.006;2023-02-03T01:46:06;11.80;;;10.83;;
31464;SDS011;18089;47.428;15.006;2023-02-03T01:48:49;11.10;;;10.30;;
31464;SDS011;18089;47.428;15.006;2023-02-03T01:51:22;12.13;;;11.00;;
31464;SDS011;18089;47.428;15.006;2023-02-03T01:53:55;12.73;;;11.47;;
31464;SDS011;18089;47.428;15.006;2023-02-03T01:56:28;10.83;;;9.83;;
31464;SDS011;18089;47.428;15.006;2023-02-03T01:59:03;10.90;;;9.90;;
31464;SDS011;18089;47.428;15.006;2023-02-03T02:01:36;10.87;;;9.97;;
31464;SDS011;18089;47.428;15.006;2023-02-03T02:04:08;10.90;;;10.00;;
31464;SDS011;18089;47.428;15.006;2023-02-03T02:06:41;10.37;;;9.50;;
31464;SDS011;18089;47.428;15.006;2023-02-03T02:09:14;10.60;;;9.70;;
31464;SDS011;18089;47.428;15.006;2023-02-03T02:11:46;11.03;;;10.13;;
31464;SDS011;18089;47.428;15.006;2023-02-03T02:14:20;11.43;;;10.53;;
31464;SDS011;18089;47.428;15.006;2023-02-03T02:16:52;11.70;;;10.60;;
31464;SDS011;18089;47.428;15.006;2023-02-03T02:22:29;12.40;;;10.37;;
31464;SDS011;18089;47.428;15.006;2023-02-03T02:34:13;12.43;;;11.07;;
31464;SDS011;18089;47.428;15.006;2023-02-03T02:36:50;12.13;;;11.13;;
31464;SDS011;18089;47.428;15.006;2023-02-03T02:39:33;11.90;;;10.87;;
31464;SDS011;18089;47.428;15.006;2023-02-03T02:42:11;11.83;;;10.73;;
31464;SDS011;18089;47.428;15.006;2023-02-03T02:44:47;11.27;;;10.37;;
31464;SDS011;18089;47.428;15.006;2023-02-03T02:47:22;11.30;;;10.30;;
31464;SDS011;18089;47.428;15.006;2023-02-03T02:49:55;11.70;;;10.70;;
31464;SDS011;18089;47.428;15.006;2023-02-03T02:52:30;11.43;;;10.43;;
31464;SDS011;18089;47.428;15.006;2023-02-03T02:55:04;11.57;;;10.73;;
31464;SDS011;18089;47.428;15.006;2023-02-03T02:57:40;11.57;;;10.67;;
31464;SDS011;18089;47.428;15.006;2023-02-03T03:00:13;12.40;;;11.30;;
31464;SDS011;18089;47.428;15.006;2023-02-03T03:02:46;12.27;;;11.17;;
31464;SDS011;18089;47.428;15.006;2023-02-03T03:05:19;11.90;;;10.87;;
31464;SDS011;18089;47.428;15.006;2023-02-03T03:07:52;12.90;;;11.10;;
31464;SDS011;18089;47.428;15.006;2023-02-03T03:10:26;11.80;;;10.67;;
31464;SDS011;18089;47.428;15.006;2023-02-03T03:13:01;12.33;;;11.23;;
31464;SDS011;18089;47.428;15.006;2023-02-03T03:15:35;12.90;;;11.50;;
31464;SDS011;18089;47.428;15.006;2023-02-03T03:18:12;12.13;;;11.07;;
31464;SDS011;18089;47.428;15.006;2023-02-03T03:20:45;12.90;;;11.80;;
31464;SDS011;18089;47.428;15.006;2023-02-03T03:23:19;12.30;;;11.17;;
31464;SDS011;18089;47.428;15.006;2023-02-03T03:26:01;12.57;;;11.40;;
31464;SDS011;18089;47.428;15.006;2023-02-03T03:28:46;11.60;;;10.57;;
31464;SDS011;18089;47.428;15.006;2023-02-03T03:31:19;12.07;;;11.07;;
31464;SDS011;18089;47.428;15.006;2023-02-03T03:33:52;12.00;;;11.00;;
31464;SDS011;18089;47.428;15.006;2023-02-03T03:36:25;12.90;;;11.63;;
31464;SDS011;18089;47.428;15.006;2023-02-03T03:39:01;11.97;;;10.87;;
31464;SDS011;18089;47.428;15.006;2023-02-03T03:41:37;13.90;;;12.60;;
31464;SDS011;18089;47.428;15.006;2023-02-03T03:44:12;13.70;;;12.40;;
31464;SDS011;18089;47.428;15.006;2023-02-03T03:46:46;13.73;;;12.53;;
31464;SDS011;18089;47.428;15.006;2023-02-03T03:49:21;14.17;;;12.90;;
31464;SDS011;18089;47.428;15.006;2023-02-03T03:51:55;14.20;;;12.80;;
31464;SDS011;18089;47.428;15.006;2023-02-03T03:54:29;15.63;;;14.07;;
31464;SDS011;18089;47.428;15.006;2023-02-03T03:57:03;14.63;;;13.23;;
31464;SDS011;18089;47.428;15.006;2023-02-03T03:59:38;14.63;;;13.23;;
31464;SDS011;18089;47.428;15.006;2023-02-03T04:02:12;14.47;;;13.03;;
31464;SDS011;18089;47.428;15.006;2023-02-03T04:04:46;15.57;;;13.97;;
31464;SDS011;18089;47.428;15.006;2023-02-03T04:07:18;15.87;;;14.23;;
31464;SDS011;18089;47.428;15.006;2023-02-03T04:09:50;16.30;;;14.33;;
31464;SDS011;18089;47.428;15.006;2023-02-03T04:12:23;15.93;;;14.33;;
31464;SDS011;18089;47.428;15.006;2023-02-03T04:14:55;16.10;;;14.40;;
31464;SDS011;18089;47.428;15.006;2023-02-03T04:17:27;16.33;;;14.63;;
31464;SDS011;18089;47.428;15.006;2023-02-03T04:20:00;17.13;;;15.43;;
31464;SDS011;18089;47.428;15.006;2023-02-03T04:22:32;16.67;;;14.87;;
31464;SDS011;18089;47.428;15.006;2023-02-03T04:25:04;15.80;;;13.97;;
31464;SDS011;18089;47.428;15.006;2023-02-03T04:27:37;16.53;;;14.73;;
31464;SDS011;18089;47.428;15.006;2023-02-03T04:30:09;18.73;;;15.80;;
31464;SDS011;18089;47.428;15.006;2023-02-03T04:32:42;20.93;;;18.07;;
31464;SDS011;18089;47.428;15.006;2023-02-03T04:35:15;23.77;;;17.37;;
31464;SDS011;18089;47.428;15.006;2023-02-03T04:37:48;19.43;;;16.33;;
31464;SDS011;18089;47.428;15.006;2023-02-03T04:40:20;21.30;;;16.67;;
31464;SDS011;18089;47.428;15.006;2023-02-03T04:42:52;21.63;;;16.57;;
31464;SDS011;18089;47.428;15.006;2023-02-03T04:45:24;19.97;;;15.83;;
31464;SDS011;18089;47.428;15.006;2023-02-03T04:47:56;19.73;;;16.50;;
31464;SDS011;18089;47.428;15.006;2023-02-03T04:50:30;19.47;;;15.73;;
31464;SDS011;18089;47.428;15.006;2023-02-03T04:53:02;17.77;;;15.00;;
31464;SDS011;18089;47.428;15.006;2023-02-03T04:55:34;20.10;;;16.23;;
31464;SDS011;18089;47.428;15.006;2023-02-03T04:58:06;20.37;;;17.23;;
31464;SDS011;18089;47.428;15.006;2023-02-03T05:00:39;18.87;;;16.87;;
31464;SDS011;18089;47.428;15.006;2023-02-03T05:03:11;18.50;;;15.93;;
31464;SDS011;18089;47.428;15.006;2023-02-03T05:05:44;17.77;;;15.33;;
31464;SDS011;18089;47.428;15.006;2023-02-03T05:08:16;17.47;;;15.67;;
31464;SDS011;18089;47.428;15.006;2023-02-03T05:10:48;18.60;;;14.57;;
31464;SDS011;18089;47.428;15.006;2023-02-03T05:13:20;17.33;;;15.50;;
31464;SDS011;18089;47.428;15.006;2023-02-03T05:15:52;17.20;;;15.37;;
31464;SDS011;18089;47.428;15.006;2023-02-03T05:18:24;17.57;;;15.77;;
31464;SDS011;18089;47.428;15.006;2023-02-03T05:20:57;17.03;;;15.23;;
31464;SDS011;18089;47.428;15.006;2023-02-03T05:23:29;16.73;;;15.03;;
31464;SDS011;18089;47.428;15.006;2023-02-03T05:26:01;15.90;;;14.40;;
31464;SDS011;18089;47.428;15.006;2023-02-03T05:28:34;16.93;;;15.13;;
31464;SDS011;18089;47.428;15.006;2023-02-03T05:31:05;15.93;;;14.40;;
31464;SDS011;18089;47.428;15.006;2023-02-03T05:33:38;16.97;;;15.17;;
31464;SDS011;18089;47.428;15.006;2023-02-03T05:36:11;15.80;;;14.20;;
31464;SDS011;18089;47.428;15.006;2023-02-03T05:38:43;16.63;;;14.93;;
31464;SDS011;18089;47.428;15.006;2023-02-03T05:41:15;17.57;;;15.77;;
31464;SDS011;18089;47.428;15.006;2023-02-03T05:44:04;19.13;;;17.10;;
31464;SDS011;18089;47.428;15.006;2023-02-03T05:46:36;18.20;;;15.33;;
31464;SDS011;18089;47.428;15.006;2023-02-03T05:49:08;17.67;;;15.70;;
31464;SDS011;18089;47.428;15.006;2023-02-03T05:51:41;20.57;;;15.70;;
31464;SDS011;18089;47.428;15.006;2023-02-03T05:54:14;18.37;;;16.47;;
31464;SDS011;18089;47.428;15.006;2023-02-03T05:56:46;17.60;;;15.73;;
31464;SDS011;18089;47.428;15.006;2023-02-03T05:59:18;17.27;;;15.43;;
31464;SDS011;18089;47.428;15.006;2023-02-03T06:01:50;18.23;;;16.23;;
31464;SDS011;18089;47.428;15.006;2023-02-03T06:04:22;18.97;;;16.87;;
31464;SDS011;18089;47.428;15.006;2023-02-03T06:06:55;18.63;;;16.63;;
31464;SDS011;18089;47.428;15.006;2023-02-03T06:09:27;18.20;;;16.30;;
31464;SDS011;18089;47.428;15.006;2023-02-03T06:11:59;18.30;;;15.57;;
31464;SDS011;18089;47.428;15.006;2023-02-03T06:14:31;19.00;;;17.07;;
31464;SDS011;18089;47.428;15.006;2023-02-03T06:17:03;17.53;;;14.03;;
31464;SDS011;18089;47.428;15.006;2023-02-03T06:19:35;15.93;;;13.83;;
31464;SDS011;18089;47.428;15.006;2023-02-03T06:22:08;16.20;;;14.60;;
31464;SDS011;18089;47.428;15.006;2023-02-03T06:24:40;16.20;;;14.60;;
31464;SDS011;18089;47.428;15.006;2023-02-03T06:27:13;18.37;;;15.80;;
31464;SDS011;18089;47.428;15.006;2023-02-03T06:29:46;20.90;;;18.10;;
31464;SDS011;18089;47.428;15.006;2023-02-03T06:32:18;24.80;;;20.60;;
31464;SDS011;18089;47.428;15.006;2023-02-03T06:34:50;24.10;;;20.37;;
31464;SDS011;18089;47.428;15.006;2023-02-03T06:37:23;19.00;;;16.60;;
31464;SDS011;18089;47.428;15.006;2023-02-03T06:39:55;18.40;;;16.37;;
31464;SDS011;18089;47.428;15.006;2023-02-03T06:42:27;27.93;;;22.63;;
31464;SDS011;18089;47.428;15.006;2023-02-03T06:44:59;24.17;;;19.83;;
31464;SDS011;18089;47.428;15.006;2023-02-03T06:47:31;18.83;;;16.40;;
31464;SDS011;18089;47.428;15.006;2023-02-03T06:50:04;21.27;;;16.57;;
31464;SDS011;18089;47.428;15.006;2023-02-03T06:52:38;21.43;;;17.57;;
31464;SDS011;18089;47.428;15.006;2023-02-03T06:55:10;20.30;;;16.57;;
31464;SDS011;18089;47.428;15.006;2023-02-03T06:57:42;19.50;;;16.40;;
31464;SDS011;18089;47.428;15.006;2023-02-03T07:00:15;21.67;;;16.80;;
31464;SDS011;18089;47.428;15.006;2023-02-03T07:02:51;18.73;;;16.33;;
31464;SDS011;18089;47.428;15.006;2023-02-03T07:05:24;20.90;;;18.13;;
31464;SDS011;18089;47.428;15.006;2023-02-03T07:07:58;18.80;;;15.27;;
31464;SDS011;18089;47.428;15.006;2023-02-03T07:10:30;19.03;;;14.33;;
31464;SDS011;18089;47.428;15.006;2023-02-03T07:13:02;17.93;;;14.50;;
31464;SDS011;18089;47.428;15.006;2023-02-03T07:15:34;17.13;;;14.90;;
31464;SDS011;18089;47.428;15.006;2023-02-03T07:18:06;16.80;;;15.20;;
31464;SDS011;18089;47.428;15.006;2023-02-03T07:20:38;17.73;;;15.83;;
31464;SDS011;18089;47.428;15.006;2023-02-03T07:23:12;18.47;;;16.43;;
31464;SDS011;18089;47.428;15.006;2023-02-03T07:25:44;19.37;;;16.57;;
31464;SDS011;18089;47.428;15.006;2023-02-03T07:28:16;24.67;;;17.80;;
31464;SDS011;18089;47.428;15.006;2023-02-03T07:30:48;16.80;;;15.20;;
31464;SDS011;18089;47.428;15.006;2023-02-03T07:33:20;19.30;;;14.67;;
31464;SDS011;18089;47.428;15.006;2023-02-03T07:35:52;18.37;;;15.37;;
31464;SDS011;18089;47.428;15.006;2023-02-03T07:38:26;18.57;;;16.43;;
31464;SDS011;18089;47.428;15.006;2023-02-03T07:40:58;21.50;;;17.53;;
31464;SDS011;18089;47.428;15.006;2023-02-03T07:43:30;29.03;;;21.90;;
31464;SDS011;18089;47.428;15.006;2023-02-03T07:46:02;23.00;;;20.20;;
31464;SDS011;18089;47.428;15.006;2023-02-03T07:48:35;24.50;;;19.43;;
31464;SDS011;18089;47.428;15.006;2023-02-03T07:51:06;27.17;;;21.13;;
31464;SDS011;18089;47.428;15.006;2023-02-03T07:53:40;27.83;;;20.97;;
31464;SDS011;18089;47.428;15.006;2023-02-03T07:56:12;27.07;;;21.67;;
31464;SDS011;18089;47.428;15.006;2023-02-03T07:58:44;25.77;;;21.67;;
31464;SDS011;18089;47.428;15.006;2023-02-03T08:01:16;26.10;;;21.67;;
31464;SDS011;18089;47.428;15.006;2023-02-03T08:03:48;28.00;;;21.43;;
31464;SDS011;18089;47.428;15.006;2023-02-03T08:06:20;25.87;;;20.87;;
31464;SDS011;18089;47.428;15.006;2023-02-03T08:08:53;29.17;;;23.67;;
31464;SDS011;18089;47.428;15.006;2023-02-03T08:11:25;40.20;;;28.50;;
31464;SDS011;18089;47.428;15.006;2023-02-03T08:13:57;26.33;;;20.43;;
31464;SDS011;18089;47.428;15.006;2023-02-03T08:16:29;25.47;;;22.23;;
31464;SDS011;18089;47.428;15.006;2023-02-03T08:19:01;50.20;;;33.10;;
31464;SDS011;18089;47.428;15.006;2023-02-03T08:21:33;26.90;;;21.83;;
31464;SDS011;18089;47.428;15.006;2023-02-03T08:24:07;24.23;;;20.87;;
31464;SDS011;18089;47.428;15.006;2023-02-03T08:26:39;28.13;;;21.27;;
31464;SDS011;18089;47.428;15.006;2023-02-03T08:29:11;26.23;;;21.23;;
31464;SDS011;18089;47.428;15.006;2023-02-03T08:31:43;28.33;;;20.67;;
31464;SDS011;18089;47.428;15.006;2023-02-03T08:34:15;25.83;;;22.03;;
31464;SDS011;18089;47.428;15.006;2023-02-03T08:36:47;28.07;;;23.00;;
31464;SDS011;18089;47.428;15.006;2023-02-03T08:39:20;36.00;;;25.47;;
31464;SDS011;18089;47.428;15.006;2023-02-03T08:41:52;29.13;;;23.83;;
31464;SDS011;18089;47.428;15.006;2023-02-03T08:44:24;28.17;;;24.10;;
31464;SDS011;18089;47.428;15.006;2023-02-03T08:46:57;35.53;;;24.80;;
31464;SDS011;18089;47.428;15.006;2023-02-03T08:49:29;34.40;;;24.77;;
31464;SDS011;18089;47.428;15.006;2023-02-03T08:52:01;39.10;;;25.60;;
31464;SDS011;18089;47.428;15.006;2023-02-03T08:54:35;37.60;;;28.10;;
31464;SDS011;18089;47.428;15.006;2023-02-03T08:57:07;32.57;;;26.33;;
31464;SDS011;18089;47.428;15.006;2023-02-03T08:59:40;33.43;;;25.10;;
31464;SDS011;18089;47.428;15.006;2023-02-03T09:02:14;33.47;;;24.13;;
31464;SDS011;18089;47.428;15.006;2023-02-03T09:04:47;39.07;;;28.87;;
31464;SDS011;18089;47.428;15.006;2023-02-03T09:07:21;56.30;;;34.97;;
31464;SDS011;18089;47.428;15.006;2023-02-03T09:09:54;35.37;;;25.50;;
31464;SDS011;18089;47.428;15.006;2023-02-03T09:12:26;18.23;;;16.33;;
31464;SDS011;18089;47.428;15.006;2023-02-03T09:14:58;31.73;;;23.23;;
31464;SDS011;18089;47.428;15.006;2023-02-03T09:17:30;27.07;;;23.03;;
31464;SDS011;18089;47.428;15.006;2023-02-03T09:20:02;25.50;;;20.70;;
31464;SDS011;18089;47.428;15.006;2023-02-03T09:22:35;24.80;;;19.47;;
31464;SDS011;18089;47.428;15.006;2023-02-03T09:25:08;27.90;;;21.63;;
31464;SDS011;18089;47.428;15.006;2023-02-03T09:27:40;31.67;;;23.47;;
31464;SDS011;18089;47.428;15.006;2023-02-03T09:30:12;49.63;;;31.70;;
31464;SDS011;18089;47.428;15.006;2023-02-03T09:32:45;36.73;;;26.10;;
31464;SDS011;18089;47.428;15.006;2023-02-03T09:35:23;24.60;;;19.50;;
31464;SDS011;18089;47.428;15.006;2023-02-03T09:37:57;26.63;;;21.90;;
31464;SDS011;18089;47.428;15.006;2023-02-03T09:40:31;30.97;;;23.43;;
31464;SDS011;18089;47.428;15.006;2023-02-03T09:43:11;23.23;;;19.17;;
31464;SDS011;18089;47.428;15.006;2023-02-03T09:45:48;29.13;;;23.17;;
31464;SDS011;18089;47.428;15.006;2023-02-03T09:48:21;34.00;;;25.27;;
31464;SDS011;18089;47.428;15.006;2023-02-03T09:50:55;25.53;;;22.50;;
31464;SDS011;18089;47.428;15.006;2023-02-03T09:53:27;25.37;;;21.13;;
31464;SDS011;18089;47.428;15.006;2023-02-03T09:56:04;25.90;;;21.70;;
31464;SDS011;18089;47.428;15.006;2023-02-03T09:58:36;28.63;;;21.80;;
31464;SDS011;18089;47.428;15.006;2023-02-03T10:01:08;34.27;;;25.57;;
31464;SDS011;18089;47.428;15.006;2023-02-03T10:03:43;32.37;;;22.03;;
31464;SDS011;18089;47.428;15.006;2023-02-03T10:06:20;30.30;;;20.90;;
31464;SDS011;18089;47.428;15.006;2023-02-03T10:09:00;29.27;;;21.73;;
31464;SDS011;18089;47.428;15.006;2023-02-03T10:11:51;25.73;;;20.48;;
31464;SDS011;18089;47.428;15.006;2023-02-03T10:14:32;19.55;;;16.15;;
31464;SDS011;18089;47.428;15.006;2023-02-03T10:17:18;17.80;;;15.90;;
31464;SDS011;18089;47.428;15.006;2023-02-03T10:20:00;21.75;;;16.42;;
31464;SDS011;18089;47.428;15.006;2023-02-03T10:22:36;20.63;;;17.07;;
31464;SDS011;18089;47.428;15.006;2023-02-03T10:25:15;18.25;;;14.80;;
31464;SDS011;18089;47.428;15.006;2023-02-03T10:27:56;22.30;;;16.25;;
31464;SDS011;18089;47.428;15.006;2023-02-03T10:30:31;14.35;;;12.82;;
31464;SDS011;18089;47.428;15.006;2023-02-03T10:33:14;19.35;;;16.25;;
31464;SDS011;18089;47.428;15.006;2023-02-03T10:35:48;13.18;;;11.88;;
31464;SDS011;18089;47.428;15.006;2023-02-03T10:38:29;12.52;;;11.32;;
31464;SDS011;18089;47.428;15.006;2023-02-03T10:41:06;10.70;;;9.90;;
31464;SDS011;18089;47.428;15.006;2023-02-03T10:43:39;11.45;;;10.45;;
31464;SDS011;18089;47.428;15.006;2023-02-03T10:46:25;10.18;;;9.35;;
31464;SDS011;18089;47.428;15.006;2023-02-03T10:48:59;9.00;;;8.30;;
31464;SDS011;18089;47.428;15.006;2023-02-03T10:51:33;19.15;;;16.38;;
31464;SDS011;18089;47.428;15.006;2023-02-03T10:54:15;19.05;;;16.88;;
31464;SDS011;18089;47.428;15.006;2023-02-03T10:57:01;12.32;;;11.13;;
31464;SDS011;18089;47.428;15.006;2023-02-03T10:59:36;12.98;;;11.77;;
31464;SDS011;18089;47.428;15.006;2023-02-03T11:02:20;14.00;;;12.70;;
31464;SDS011;18089;47.428;15.006;2023-02-03T11:07:53;10.27;;;9.48;;
31464;SDS011;18089;47.428;15.006;2023-02-03T11:10:30;9.05;;;8.35;;
31464;SDS011;18089;47.428;15.006;2023-02-03T11:13:12;8.30;;;7.60;;
31464;SDS011;18089;47.428;15.006;2023-02-03T11:15:51;7.35;;;6.90;;
31464;SDS011;18089;47.428;15.006;2023-02-03T11:21:23;7.25;;;6.85;;
31464;SDS011;18089;47.428;15.006;2023-02-03T11:24:00;6.50;;;6.20;;
31464;SDS011;18089;47.428;15.006;2023-02-03T11:26:34;6.70;;;6.30;;
31464;SDS011;18089;47.428;15.006;2023-02-03T11:29:14;7.15;;;6.65;;
31464;SDS011;18089;47.428;15.006;2023-02-03T11:31:50;6.90;;;6.47;;
31464;SDS011;18089;47.428;15.006;2023-02-03T11:34:23;10.27;;;8.65;;
31464;SDS011;18089;47.428;15.006;2023-02-03T11:36:58;11.63;;;8.95;;
31464;SDS011;18089;47.428;15.006;2023-02-03T11:39:54;10.27;;;8.60;;
31464;SDS011;18089;47.428;15.006;2023-02-03T11:42:27;8.77;;;7.97;;
31464;SDS011;18089;47.428;15.006;2023-02-03T11:45:11;7.10;;;6.70;;
31464;SDS011;18089;47.428;15.006;2023-02-03T11:47:45;6.40;;;6.10;;
31464;SDS011;18089;47.428;15.006;2023-02-03T11:50:22;7.30;;;6.80;;
31464;SDS011;18089;47.428;15.006;2023-02-03T11:55:53;6.38;;;5.97;;
31464;SDS011;18089;47.428;15.006;2023-02-03T11:58:39;6.45;;;6.05;;
31464;SDS011;18089;47.428;15.006;2023-02-03T12:01:48;6.63;;;6.22;;
31464;SDS011;18089;47.428;15.006;2023-02-03T12:04:40;6.57;;;6.18;;
31464;SDS011;18089;47.428;15.006;2023-02-03T12:07:39;8.43;;;7.63;;
31464;SDS011;18089;47.428;15.006;2023-02-03T12:10:27;8.23;;;7.53;;
31464;SDS011;18089;47.428;15.006;2023-02-03T12:13:09;7.00;;;6.55;;
31464;SDS011;18089;47.428;15.006;2023-02-03T12:15:52;9.35;;;8.38;;
31464;SDS011;18089;47.428;15.006;2023-02-03T12:18:40;7.25;;;6.85;;
31464;SDS011;18089;47.428;15.006;2023-02-03T12:21:31;8.35;;;7.63;;
31464;SDS011;18089;47.428;15.006;2023-02-03T12:24:14;7.90;;;7.30;;
31464;SDS011;18089;47.428;15.006;2023-02-03T12:26:56;7.55;;;7.15;;
31464;SDS011;18089;47.428;15.006;2023-02-03T12:29:36;7.60;;;7.20;;
31464;SDS011;18089;47.428;15.006;2023-02-03T12:32:13;8.35;;;7.90;;
31464;SDS011;18089;47.428;15.006;2023-02-03T12:34:52;8.10;;;7.60;;
31464;SDS011;18089;47.428;15.006;2023-02-03T12:37:27;7.60;;;7.20;;
31464;SDS011;18089;47.428;15.006;2023-02-03T12:40:05;7.70;;;7.30;;
31464;SDS011;18089;47.428;15.006;2023-02-03T12:42:46;7.47;;;7.07;;
31464;SDS011;18089;47.428;15.006;2023-02-03T12:45:22;7.40;;;7.10;;
31464;SDS011;18089;47.428;15.006;2023-02-03T12:47:57;8.80;;;8.20;;
31464;SDS011;18089;47.428;15.006;2023-02-03T12:50:31;9.32;;;8.60;;
31464;SDS011;18089;47.428;15.006;2023-02-03T12:53:10;7.10;;;6.80;;
31464;SDS011;18089;47.428;15.006;2023-02-03T12:55:46;8.52;;;7.95;;
31464;SDS011;18089;47.428;15.006;2023-02-03T12:58:24;8.13;;;7.72;;
31464;SDS011;18089;47.428;15.006;2023-02-03T13:00:59;8.18;;;7.68;;
31464;SDS011;18089;47.428;15.006;2023-02-03T13:03:35;7.57;;;7.22;;
31464;SDS011;18089;47.428;15.006;2023-02-03T13:06:13;7.93;;;7.32;;
31464;SDS011;18089;47.428;15.006;2023-02-03T13:08:51;7.80;;;7.40;;
31464;SDS011;18089;47.428;15.006;2023-02-03T13:11:28;7.93;;;7.57;;
31464;SDS011;18089;47.428;15.006;2023-02-03T13:14:03;7.75;;;7.35;;
31464;SDS011;18089;47.428;15.006;2023-02-03T13:16:42;15.17;;;12.67;;
31464;SDS011;18089;47.428;15.006;2023-02-03T13:19:17;22.83;;;15.73;;
31464;SDS011;18089;47.428;15.006;2023-02-03T13:21:51;8.10;;;7.80;;
31464;SDS011;18089;47.428;15.006;2023-02-03T13:24:25;8.10;;;7.70;;
31464;SDS011;18089;47.428;15.006;2023-02-03T13:27:01;8.20;;;7.80;;
31464;SDS011;18089;47.428;15.006;2023-02-03T13:30:03;8.07;;;7.67;;
31464;SDS011;18089;47.428;15.006;2023-02-03T13:32:50;8.53;;;8.13;;
31464;SDS011;18089;47.428;15.006;2023-02-03T13:35:39;8.10;;;7.60;;
31464;SDS011;18089;47.428;15.006;2023-02-03T13:38:22;8.50;;;8.10;;
31464;SDS011;18089;47.428;15.006;2023-02-03T13:41:03;9.30;;;8.80;;
31464;SDS011;18089;47.428;15.006;2023-02-03T13:43:38;8.10;;;7.70;;
31464;SDS011;18089;47.428;15.006;2023-02-03T13:46:18;8.40;;;8.00;;
31464;SDS011;18089;47.428;15.006;2023-02-03T13:48:52;8.40;;;8.00;;
31464;SDS011;18089;47.428;15.006;2023-02-03T13:51:25;8.10;;;7.70;;
31464;SDS011;18089;47.428;15.006;2023-02-03T13:54:04;8.50;;;8.10;;
31464;SDS011;18089;47.428;15.006;2023-02-03T13:56:39;8.87;;;8.27;;
31464;SDS011;18089;47.428;15.006;2023-02-03T13:59:25;11.00;;;9.93;;
31464;SDS011;18089;47.428;15.006;2023-02-03T14:23:50;8.80;;;8.40;;
31464;SDS011;18089;47.428;15.006;2023-02-03T14:26:33;10.07;;;9.37;;
31464;SDS011;18089;47.428;15.006;2023-02-03T14:29:22;13.83;;;12.53;;
31464;SDS011;18089;47.428;15.006;2023-02-03T14:31:56;19.83;;;15.53;;
31464;SDS011;18089;47.428;15.006;2023-02-03T14:34:32;12.02;;;10.93;;
31464;SDS011;18089;47.428;15.006;2023-02-03T14:37:09;18.27;;;13.90;;
31464;SDS011;18089;47.428;15.006;2023-02-03T14:40:06;9.20;;;8.50;;
31464;SDS011;18089;47.428;15.006;2023-02-03T14:43:15;24.53;;;15.70;;
31464;SDS011;18089;47.428;15.006;2023-02-03T14:46:03;11.77;;;10.70;;
31464;SDS011;18089;47.428;15.006;2023-02-03T14:48:59;10.25;;;9.55;;
31464;SDS011;18089;47.428;15.006;2023-02-03T14:51:44;17.53;;;14.60;;
31464;SDS011;18089;47.428;15.006;2023-02-03T14:54:26;19.53;;;15.90;;
31464;SDS011;18089;47.428;15.006;2023-02-03T14:57:11;9.47;;;8.87;;
31464;SDS011;18089;47.428;15.006;2023-02-03T14:59:55;10.47;;;9.67;;
31464;SDS011;18089;47.428;15.006;2023-02-03T15:02:29;10.60;;;9.70;;
31464;SDS011;18089;47.428;15.006;2023-02-03T15:08:29;10.73;;;9.83;;
31464;SDS011;18089;47.428;15.006;2023-02-03T15:11:14;16.40;;;14.33;;
31464;SDS011;18089;47.428;15.006;2023-02-03T15:14:12;14.97;;;13.47;;
31464;SDS011;18089;47.428;15.006;2023-02-03T15:16:52;19.90;;;15.33;;
31464;SDS011;18089;47.428;15.006;2023-02-03T15:19:26;15.50;;;13.97;;
31464;SDS011;18089;47.428;15.006;2023-02-03T15:21:59;9.53;;;8.93;;
31464;SDS011;18089;47.428;15.006;2023-02-03T15:24:33;15.40;;;12.67;;
31464;SDS011;18089;47.428;15.006;2023-02-03T15:27:17;39.87;;;22.20;;
31464;SDS011;18089;47.428;15.006;2023-02-03T15:29:52;9.43;;;8.73;;
31464;SDS011;18089;47.428;15.006;2023-02-03T15:32:29;19.80;;;16.23;;
31464;SDS011;18089;47.428;15.006;2023-02-03T15:35:03;12.93;;;11.67;;
31464;SDS011;18089;47.428;15.006;2023-02-03T15:37:40;9.30;;;8.70;;
31464;SDS011;18089;47.428;15.006;2023-02-03T15:40:16;10.83;;;10.13;;
31464;SDS011;18089;47.428;15.006;2023-02-03T15:42:50;9.40;;;8.80;;
31464;SDS011;18089;47.428;15.006;2023-02-03T15:45:25;33.77;;;22.33;;
31464;SDS011;18089;47.428;15.006;2023-02-03T15:48:01;14.70;;;13.37;;
31464;SDS011;18089;47.428;15.006;2023-02-03T15:50:35;20.40;;;16.43;;